createdAt,value
2023-04-25T00:00:02.757Z,31.94
2023-04-25T00:01:02.702Z,31.94
2023-04-25T00:02:02.747Z,31.95
2023-04-25T00:03:02.867Z,31.94
2023-04-25T00:04:02.895Z,31.94
2023-04-25T00:05:03.088Z,31.94
2023-04-25T00:06:03.198Z,31.88
2023-04-25T00:07:02.726Z,31.93
2023-04-25T00:08:02.670Z,31.91
2023-04-25T00:09:02.659Z,31.91
2023-04-25T00:10:02.633Z,31.94
2023-04-25T00:11:02.685Z,31.95
2023-04-25T00:12:02.674Z,31.96
2023-04-25T00:13:02.629Z,31.93
2023-04-25T00:14:02.651Z,31.93
2023-04-25T00:15:02.652Z,31.94
2023-04-25T00:16:02.708Z,31.94
2023-04-25T00:17:02.653Z,31.95
2023-04-25T00:18:02.746Z,31.97
2023-04-25T00:19:02.703Z,31.97
2023-04-25T00:20:02.734Z,31.99
2023-04-25T00:21:03.190Z,31.99
2023-04-25T00:22:02.751Z,31.97
2023-04-25T00:23:02.750Z,31.97
2023-04-25T00:24:02.741Z,32.00
2023-04-25T00:25:02.752Z,31.96
2023-04-25T00:26:03.197Z,31.91
2023-04-25T00:27:02.785Z,31.92
2023-04-25T00:28:02.820Z,31.96
2023-04-25T00:29:02.798Z,31.97
2023-04-25T00:30:02.798Z,31.97
2023-04-25T00:31:03.219Z,31.96
2023-04-25T00:32:02.910Z,31.97
2023-04-25T00:33:02.899Z,31.98
2023-04-25T00:34:02.890Z,31.99
2023-04-25T00:35:02.851Z,32.01
2023-04-25T00:36:03.203Z,32.02
2023-04-25T00:37:02.916Z,32.02
2023-04-25T00:38:02.867Z,32.01
2023-04-25T00:39:02.922Z,32.00
2023-04-25T00:40:02.944Z,32.01
2023-04-25T00:41:03.201Z,32.02
2023-04-25T00:42:02.975Z,31.97
2023-04-25T00:43:02.948Z,31.99
2023-04-25T00:44:02.949Z,32.03
2023-04-25T00:45:02.950Z,32.02
2023-04-25T00:46:03.187Z,32.03
2023-04-25T00:47:03.110Z,32.02
2023-04-25T00:48:02.952Z,32.01
2023-04-25T00:49:02.981Z,32.01
2023-04-25T00:50:02.987Z,31.98
2023-04-25T00:51:03.208Z,32.00
2023-04-25T00:52:03.001Z,32.00
2023-04-25T00:53:03.010Z,32.02
2023-04-25T00:54:03.045Z,32.02
2023-04-25T00:55:03.042Z,32.01
2023-04-25T00:56:03.181Z,31.93
2023-04-25T00:57:03.065Z,31.95
2023-04-25T00:58:03.091Z,31.99
2023-04-25T00:59:03.104Z,32.00
2023-04-25T01:00:03.076Z,32.03
2023-04-25T01:01:03.129Z,32.02
2023-04-25T01:02:03.145Z,32.03
2023-04-25T01:03:03.288Z,32.04
2023-04-25T01:04:03.163Z,32.08
2023-04-25T01:05:03.140Z,32.10
2023-04-25T01:06:03.228Z,32.05
2023-04-25T01:07:03.133Z,32.01
2023-04-25T01:08:03.165Z,32.01
2023-04-25T01:09:03.201Z,32.05
2023-04-25T01:10:03.223Z,32.09
2023-04-25T01:11:03.683Z,32.08
2023-04-25T01:12:03.208Z,32.11
2023-04-25T01:13:03.267Z,32.12
2023-04-25T01:14:03.239Z,32.11
2023-04-25T01:15:03.263Z,32.13
2023-04-25T01:16:03.732Z,32.13
2023-04-25T01:17:03.486Z,32.13
2023-04-25T01:18:03.329Z,32.16
2023-04-25T01:19:03.326Z,32.19
2023-04-25T01:20:03.330Z,32.15
2023-04-25T01:21:03.677Z,32.13
2023-04-25T01:22:03.336Z,32.17
2023-04-25T01:23:03.374Z,32.17
2023-04-25T01:24:03.373Z,32.14
2023-04-25T01:25:03.391Z,32.15
2023-04-25T01:26:03.693Z,32.19
2023-04-25T01:27:03.407Z,32.21
2023-04-25T01:28:03.370Z,32.21
2023-04-25T01:29:03.402Z,32.19
2023-04-25T01:30:03.404Z,32.16
2023-04-25T01:31:03.681Z,32.18
2023-04-25T01:32:03.450Z,32.16
2023-04-25T01:33:03.501Z,32.21
2023-04-25T01:34:03.438Z,32.19
2023-04-25T01:35:03.398Z,32.24
2023-04-25T01:36:03.743Z,32.20
2023-04-25T01:37:03.443Z,32.24
2023-04-25T01:38:03.454Z,32.20
2023-04-25T01:39:03.463Z,32.19
2023-04-25T01:40:03.494Z,32.19
2023-04-25T01:41:03.729Z,32.22
2023-04-25T01:42:03.506Z,32.22
2023-04-25T01:43:03.492Z,32.24
2023-04-25T01:44:03.515Z,32.22
2023-04-25T01:45:03.512Z,32.25
2023-04-25T01:46:03.774Z,32.23
2023-04-25T01:47:03.554Z,32.24
2023-04-25T01:48:03.583Z,32.24
2023-04-25T01:49:03.599Z,32.27
2023-04-25T01:50:03.570Z,32.26
2023-04-25T01:51:03.693Z,32.24
2023-04-25T01:52:03.595Z,32.28
2023-04-25T01:53:03.629Z,32.27
2023-04-25T01:54:03.636Z,32.29
2023-04-25T01:55:03.643Z,32.28
2023-04-25T01:56:03.692Z,32.29
2023-04-25T01:57:03.675Z,32.28
2023-04-25T01:58:03.667Z,32.28
2023-04-25T01:59:03.697Z,32.23
2023-04-25T02:00:03.747Z,32.20
2023-04-25T02:01:04.282Z,32.25
2023-04-25T02:02:03.730Z,32.26
2023-04-25T02:03:03.803Z,32.26
2023-04-25T02:04:03.909Z,32.26
2023-04-25T02:05:03.735Z,32.28
2023-04-25T02:06:04.194Z,32.29
2023-04-25T02:07:03.768Z,32.27
2023-04-25T02:08:03.771Z,32.30
2023-04-25T02:09:03.797Z,32.31
2023-04-25T02:10:03.773Z,32.31
2023-04-25T02:11:04.233Z,32.33
2023-04-25T02:12:03.781Z,32.36
2023-04-25T02:13:03.858Z,32.35
2023-04-25T02:14:03.865Z,32.33
2023-04-25T02:15:03.840Z,32.31
2023-04-25T02:16:04.267Z,32.32
2023-04-25T02:17:03.926Z,32.32
2023-04-25T02:18:03.938Z,32.32
2023-04-25T02:19:03.841Z,32.30
2023-04-25T02:20:03.852Z,32.31
2023-04-25T02:21:04.237Z,32.33
2023-04-25T02:22:03.965Z,32.32
2023-04-25T02:23:03.910Z,32.32
2023-04-25T02:24:03.880Z,32.35
2023-04-25T02:25:03.905Z,32.29
2023-04-25T02:26:03.925Z,32.30
2023-04-25T02:27:03.941Z,32.32
2023-04-25T02:28:03.967Z,32.34
2023-04-25T02:29:03.992Z,32.35
2023-04-25T02:30:03.994Z,32.38
2023-04-25T02:31:04.022Z,32.39
2023-04-25T02:32:04.207Z,32.41
2023-04-25T02:33:04.079Z,32.38
2023-04-25T02:34:04.021Z,32.38
2023-04-25T02:35:04.042Z,32.40
2023-04-25T02:36:04.001Z,32.43
2023-04-25T02:37:04.057Z,32.42
2023-04-25T02:38:04.046Z,32.43
2023-04-25T02:39:04.109Z,32.41
2023-04-25T02:40:04.069Z,32.37
2023-04-25T02:41:04.095Z,32.42
2023-04-25T02:42:04.214Z,32.44
2023-04-25T02:43:04.112Z,32.44
2023-04-25T02:44:04.070Z,32.44
2023-04-25T02:45:04.104Z,32.46
2023-04-25T02:46:04.109Z,32.45
2023-04-25T02:47:04.164Z,32.43
2023-04-25T02:48:04.232Z,32.41
2023-04-25T02:49:04.153Z,32.46
2023-04-25T02:50:04.188Z,32.46
2023-04-25T02:51:04.164Z,32.42
2023-04-25T02:52:04.201Z,32.40
2023-04-25T02:53:04.207Z,32.43
2023-04-25T02:54:04.223Z,32.45
2023-04-25T02:55:04.190Z,32.43
2023-04-25T02:56:04.280Z,32.48
2023-04-25T02:57:04.727Z,32.48
2023-04-25T02:58:04.223Z,32.48
2023-04-25T02:59:04.239Z,32.51
2023-04-25T03:00:04.271Z,32.51
2023-04-25T03:01:04.306Z,32.49
2023-04-25T03:02:04.736Z,32.47
2023-04-25T03:03:04.395Z,32.49
2023-04-25T03:04:04.358Z,32.54
2023-04-25T03:05:04.305Z,32.54
2023-04-25T03:06:04.309Z,32.52
2023-04-25T03:07:04.734Z,32.53
2023-04-25T03:08:04.326Z,32.54
2023-04-25T03:09:04.318Z,32.56
2023-04-25T03:10:04.381Z,32.54
2023-04-25T03:11:04.385Z,32.53
2023-04-25T03:12:04.720Z,32.53
2023-04-25T03:13:04.399Z,32.53
2023-04-25T03:14:04.405Z,32.49
2023-04-25T03:15:04.415Z,32.52
2023-04-25T03:16:04.476Z,32.53
2023-04-25T03:17:04.727Z,32.55
2023-04-25T03:18:04.481Z,32.54
2023-04-25T03:19:04.435Z,32.55
2023-04-25T03:20:04.466Z,32.57
2023-04-25T03:21:04.490Z,32.59
2023-04-25T03:22:04.739Z,32.61
2023-04-25T03:23:04.455Z,32.58
2023-04-25T03:24:04.518Z,32.59
2023-04-25T03:25:04.518Z,32.61
2023-04-25T03:26:04.506Z,32.63
2023-04-25T03:27:04.764Z,32.63
2023-04-25T03:28:04.535Z,32.66
2023-04-25T03:29:04.524Z,32.64
2023-04-25T03:30:04.549Z,32.65
2023-04-25T03:31:04.585Z,32.66
2023-04-25T03:32:04.803Z,32.63
2023-04-25T03:33:04.633Z,32.65
2023-04-25T03:34:04.581Z,32.67
2023-04-25T03:35:04.617Z,32.69
2023-04-25T03:36:04.622Z,32.68
2023-04-25T03:37:04.777Z,32.69
2023-04-25T03:38:04.634Z,32.67
2023-04-25T03:39:04.638Z,32.65
2023-04-25T03:40:04.659Z,32.70
2023-04-25T03:41:04.740Z,32.71
2023-04-25T03:42:04.757Z,32.68
2023-04-25T03:43:04.763Z,32.70
2023-04-25T03:44:04.755Z,32.70
2023-04-25T03:45:04.825Z,32.68
2023-04-25T03:46:04.813Z,32.67
2023-04-25T03:47:05.253Z,32.67
2023-04-25T03:48:04.851Z,32.68
2023-04-25T03:49:04.813Z,32.69
2023-04-25T03:50:04.785Z,32.71
2023-04-25T03:51:04.777Z,32.71
2023-04-25T03:52:05.276Z,32.70
2023-04-25T03:53:04.841Z,32.68
2023-04-25T03:54:04.825Z,32.71
2023-04-25T03:55:04.820Z,32.67
2023-04-25T03:56:04.830Z,32.66
2023-04-25T03:57:05.249Z,32.65
2023-04-25T03:58:04.875Z,32.68
2023-04-25T03:59:04.870Z,32.67
2023-04-25T04:00:04.879Z,32.68
2023-04-25T04:01:04.875Z,32.66
2023-04-25T04:02:05.302Z,32.66
2023-04-25T04:03:05.025Z,32.66
2023-04-25T04:04:05.068Z,32.68
2023-04-25T04:05:05.047Z,32.65
2023-04-25T04:06:04.947Z,32.63
2023-04-25T04:07:05.259Z,32.65
2023-04-25T04:08:04.943Z,32.64
2023-04-25T04:09:04.965Z,32.62
2023-04-25T04:10:05.022Z,32.62
2023-04-25T04:11:05.016Z,32.64
2023-04-25T04:12:05.239Z,32.63
2023-04-25T04:13:05.005Z,32.65
2023-04-25T04:14:05.057Z,32.63
2023-04-25T04:15:05.063Z,32.65
2023-04-25T04:16:05.121Z,32.62
2023-04-25T04:17:05.090Z,32.61
2023-04-25T04:18:05.151Z,32.62
2023-04-25T04:19:05.103Z,32.65
2023-04-25T04:20:05.128Z,32.64
2023-04-25T04:21:05.117Z,32.62
2023-04-25T04:22:05.130Z,32.61
2023-04-25T04:23:05.129Z,32.61
2023-04-25T04:24:05.181Z,32.60
2023-04-25T04:25:05.205Z,32.62
2023-04-25T04:26:05.177Z,32.59
2023-04-25T04:27:05.272Z,32.61
2023-04-25T04:28:05.220Z,32.63
2023-04-25T04:29:05.203Z,32.62
2023-04-25T04:30:05.239Z,32.61
2023-04-25T04:31:05.275Z,32.63
2023-04-25T04:32:05.263Z,32.61
2023-04-25T04:33:05.297Z,32.61
2023-04-25T04:34:05.262Z,32.62
2023-04-25T04:35:05.270Z,32.60
2023-04-25T04:36:05.313Z,32.60
2023-04-25T04:37:05.770Z,32.60
2023-04-25T04:38:05.333Z,32.60
2023-04-25T04:39:05.312Z,32.61
2023-04-25T04:40:05.368Z,32.60
2023-04-25T04:41:05.358Z,32.62
2023-04-25T04:42:05.406Z,32.62
2023-04-25T04:43:05.397Z,32.58
2023-04-25T04:44:06.506Z,32.60
2023-04-25T04:45:05.396Z,32.57
2023-04-25T04:46:05.527Z,32.62
2023-04-25T04:47:05.903Z,32.63
2023-04-25T04:48:05.470Z,32.63
2023-04-25T04:49:05.437Z,32.64
2023-04-25T04:50:05.470Z,32.65
2023-04-25T04:51:05.499Z,32.65
2023-04-25T04:52:05.770Z,32.66
2023-04-25T04:53:05.520Z,32.64
2023-04-25T04:54:05.617Z,32.66
2023-04-25T04:55:05.585Z,32.65
2023-04-25T04:56:05.564Z,32.70
2023-04-25T04:57:05.867Z,32.68
2023-04-25T04:58:05.573Z,32.67
2023-04-25T04:59:05.593Z,32.60
2023-04-25T05:00:05.674Z,33.53
2023-04-25T05:01:05.606Z,33.42
2023-04-25T05:02:05.602Z,33.20
2023-04-25T05:03:05.712Z,33.13
2023-04-25T05:04:05.787Z,33.45
2023-04-25T05:05:05.622Z,33.85
2023-04-25T05:06:05.627Z,34.24
2023-04-25T05:07:05.814Z,34.31
2023-04-25T05:08:05.646Z,34.32
2023-04-25T05:09:05.648Z,34.40
2023-04-25T05:10:05.688Z,34.36
2023-04-25T05:11:05.674Z,34.32
2023-04-25T05:12:05.702Z,34.28
2023-04-25T05:13:05.724Z,34.22
2023-04-25T05:14:05.703Z,34.22
2023-04-25T05:15:05.762Z,34.01
2023-04-25T05:16:05.779Z,33.79
2023-04-25T05:17:05.776Z,34.01
2023-04-25T05:18:05.838Z,33.97
2023-04-25T05:19:05.804Z,34.07
2023-04-25T05:20:05.788Z,33.96
2023-04-25T05:21:05.848Z,33.86
2023-04-25T05:22:06.319Z,33.89
2023-04-25T05:23:05.840Z,33.80
2023-04-25T05:24:05.861Z,33.78
2023-04-25T05:25:05.866Z,33.69
2023-04-25T05:26:05.880Z,33.64
2023-04-25T05:27:06.303Z,33.61
2023-04-25T05:28:05.877Z,33.62
2023-04-25T05:29:05.882Z,33.57
2023-04-25T05:30:05.912Z,33.55
2023-04-25T05:31:05.945Z,33.52
2023-04-25T05:32:05.951Z,33.50
2023-04-25T05:33:05.994Z,33.51
2023-04-25T05:34:05.966Z,33.48
2023-04-25T05:35:06.006Z,33.44
2023-04-25T05:36:05.986Z,33.46
2023-04-25T05:37:05.983Z,33.46
2023-04-25T05:38:05.993Z,33.42
2023-04-25T05:39:05.997Z,33.44
2023-04-25T05:40:06.042Z,33.42
2023-04-25T05:41:06.220Z,33.42
2023-04-25T05:42:06.400Z,33.39
2023-04-25T05:43:06.787Z,33.37
2023-04-25T05:44:06.128Z,33.38
2023-04-25T05:45:06.187Z,33.37
2023-04-25T05:46:06.222Z,33.39
2023-04-25T05:47:06.224Z,33.99
2023-04-25T05:48:06.348Z,34.01
2023-04-25T05:49:06.242Z,34.80
2023-04-25T05:50:06.312Z,34.76
2023-04-25T05:51:06.265Z,34.60
2023-04-25T05:52:06.310Z,34.83
2023-04-25T05:53:06.810Z,35.51
2023-04-25T05:54:06.318Z,35.35
2023-04-25T05:55:06.384Z,34.81
2023-04-25T05:56:06.363Z,34.80
2023-04-25T05:57:06.422Z,34.88
2023-04-25T05:58:06.431Z,35.05
2023-04-25T05:59:06.515Z,35.42
2023-04-25T06:00:06.505Z,35.61
2023-04-25T06:01:06.548Z,35.69
2023-04-25T06:02:06.592Z,36.17
2023-04-25T06:03:06.988Z,36.25
2023-04-25T06:04:06.897Z,35.91
2023-04-25T06:05:06.859Z,36.01
2023-04-25T06:06:49.222Z,36.71
2023-04-25T06:07:49.431Z,36.93
2023-04-25T06:08:49.198Z,37.39
2023-04-25T06:09:49.199Z,37.87
2023-04-25T06:10:49.190Z,38.21
2023-04-25T06:11:49.185Z,38.38
2023-04-25T06:12:49.382Z,38.17
2023-04-25T06:13:49.416Z,38.23
2023-04-25T06:14:49.177Z,38.59
2023-04-25T06:15:49.147Z,38.79
2023-04-25T06:16:49.138Z,38.92
2023-04-25T06:17:49.140Z,39.80
2023-04-25T06:18:49.131Z,39.49
2023-04-25T06:19:49.130Z,40.18
2023-04-25T06:20:49.125Z,40.31
2023-04-25T06:21:49.112Z,39.80
2023-04-25T06:22:49.377Z,39.82
2023-04-25T06:23:49.358Z,39.93
2023-04-25T06:24:49.075Z,40.42
2023-04-25T06:25:49.110Z,40.23
2023-04-25T06:26:49.077Z,40.28
2023-04-25T06:27:49.505Z,40.59
2023-04-25T06:28:49.036Z,40.74
2023-04-25T06:29:49.068Z,40.66
2023-04-25T06:30:49.034Z,40.49
2023-04-25T06:31:49.143Z,40.86
2023-04-25T06:32:49.075Z,40.75
2023-04-25T06:33:49.176Z,40.70
2023-04-25T06:34:49.064Z,40.81
2023-04-25T06:35:49.038Z,40.84
2023-04-25T06:36:48.976Z,40.87
2023-04-25T06:37:49.004Z,40.97
2023-04-25T06:38:49.236Z,41.07
2023-04-25T06:39:49.065Z,41.09
2023-04-25T06:40:49.000Z,41.77
2023-04-25T06:41:48.983Z,41.43
2023-04-25T06:42:48.969Z,41.33
2023-04-25T06:43:49.898Z,41.40
2023-04-25T06:44:48.967Z,41.75
2023-04-25T06:45:48.967Z,41.64
2023-04-25T06:46:48.965Z,41.58
2023-04-25T06:47:48.963Z,41.62
2023-04-25T06:48:49.083Z,41.72
2023-04-25T06:49:48.920Z,41.80
2023-04-25T06:50:48.902Z,41.86
2023-04-25T06:51:48.897Z,42.17
2023-04-25T06:52:48.895Z,42.07
2023-04-25T06:53:48.912Z,37.07
2023-04-25T06:54:48.870Z,36.81
2023-04-25T06:55:48.888Z,35.53
2023-04-25T06:56:48.887Z,35.15
2023-04-25T06:57:48.884Z,36.57
2023-04-25T06:58:50.042Z,37.08
2023-04-25T06:59:48.880Z,37.39
2023-04-25T07:00:48.908Z,37.97
2023-04-25T07:01:48.820Z,38.09
2023-04-25T07:02:49.038Z,38.22
2023-04-25T07:03:48.986Z,38.47
2023-04-25T07:04:48.903Z,38.60
2023-04-25T07:05:48.825Z,38.72
2023-04-25T07:06:48.785Z,38.69
2023-04-25T07:07:48.785Z,39.04
2023-04-25T07:08:49.151Z,38.88
2023-04-25T07:09:48.780Z,38.87
2023-04-25T07:10:49.896Z,39.11
2023-04-25T07:11:48.798Z,39.19
2023-04-25T07:12:48.829Z,39.44
2023-04-25T07:13:48.845Z,39.34
2023-04-25T07:14:48.850Z,39.33
2023-04-25T07:15:48.859Z,39.31
2023-04-25T07:16:48.917Z,39.31
2023-04-25T07:17:49.028Z,39.50
2023-04-25T07:18:49.149Z,39.56
2023-04-25T07:19:48.884Z,39.76
2023-04-25T07:20:48.887Z,39.69
2023-04-25T07:21:48.909Z,39.62
2023-04-25T07:22:48.904Z,39.80
2023-04-25T07:23:48.924Z,39.76
2023-04-25T07:24:48.917Z,39.83
2023-04-25T07:25:48.931Z,39.91
2023-04-25T07:26:48.948Z,39.96
2023-04-25T07:27:49.399Z,40.01
2023-04-25T07:28:49.100Z,40.43
2023-04-25T07:29:48.995Z,40.30
2023-04-25T07:30:48.989Z,40.44
2023-04-25T07:31:49.117Z,40.69
2023-04-25T07:32:49.179Z,40.61
2023-04-25T07:33:49.416Z,40.48
2023-04-25T07:34:49.030Z,40.64
2023-04-25T07:35:49.065Z,40.68
2023-04-25T07:36:49.084Z,40.74
2023-04-25T07:37:49.069Z,40.75
2023-04-25T07:38:49.425Z,40.79
2023-04-25T07:39:49.171Z,40.71
2023-04-25T07:40:49.225Z,40.77
2023-04-25T07:41:49.250Z,40.86
2023-04-25T07:42:49.288Z,40.99
2023-04-25T07:43:49.430Z,40.90
2023-04-25T07:44:49.422Z,40.92
2023-04-25T07:45:49.509Z,41.01
2023-04-25T07:46:49.515Z,41.13
2023-04-25T07:47:49.588Z,41.27
2023-04-25T07:48:49.838Z,41.17
2023-04-25T07:49:49.668Z,41.23
2023-04-25T07:50:49.738Z,40.33
2023-04-25T07:51:49.722Z,38.46
2023-04-25T07:52:49.792Z,34.69
2023-04-25T07:53:50.640Z,36.18
2023-04-25T07:54:49.781Z,34.09
2023-04-25T07:55:49.821Z,33.21
2023-04-25T07:56:53.401Z,34.45
2023-04-25T07:57:50.452Z,34.69
2023-04-25T07:58:50.107Z,35.44
2023-04-25T07:59:49.855Z,36.01
2023-04-25T08:00:49.841Z,36.26
2023-04-25T08:01:49.826Z,36.71
2023-04-25T08:02:49.879Z,37.23
2023-04-25T08:03:50.118Z,37.24
2023-04-25T08:04:49.927Z,37.31
2023-04-25T08:05:49.908Z,37.36
2023-04-25T08:06:49.787Z,37.44
2023-04-25T08:07:49.777Z,37.46
2023-04-25T08:08:50.092Z,37.56
2023-04-25T08:09:49.773Z,37.77
2023-04-25T08:10:49.784Z,37.87
2023-04-25T08:11:49.805Z,37.92
2023-04-25T08:12:49.750Z,38.11
2023-04-25T08:13:49.945Z,38.11
2023-04-25T08:14:49.753Z,38.17
2023-04-25T08:15:49.723Z,38.24
2023-04-25T08:16:49.760Z,38.31
2023-04-25T08:17:49.746Z,38.41
2023-04-25T08:18:50.086Z,38.40
2023-04-25T08:19:49.678Z,38.40
2023-04-25T08:20:49.700Z,38.47
2023-04-25T08:21:49.692Z,38.51
2023-04-25T08:22:49.695Z,38.61
2023-04-25T08:23:49.938Z,38.72
2023-04-25T08:24:49.685Z,38.62
2023-04-25T08:25:49.663Z,38.66
2023-04-25T08:26:49.631Z,38.66
2023-04-25T08:27:49.630Z,38.72
2023-04-25T08:28:50.163Z,38.77
2023-04-25T08:29:49.629Z,38.84
2023-04-25T08:30:49.626Z,38.86
2023-04-25T08:31:49.675Z,38.93
2023-04-25T08:32:49.615Z,39.00
2023-04-25T08:33:49.942Z,39.00
2023-04-25T08:34:49.616Z,39.06
2023-04-25T08:35:49.571Z,39.09
2023-04-25T08:36:49.591Z,39.22
2023-04-25T08:37:49.584Z,39.25
2023-04-25T08:38:50.181Z,39.22
2023-04-25T08:39:49.587Z,39.41
2023-04-25T08:40:49.556Z,39.35
2023-04-25T08:41:49.568Z,38.62
2023-04-25T08:42:49.533Z,35.17
2023-04-25T08:43:49.944Z,35.87
2023-04-25T08:44:49.533Z,35.44
2023-04-25T08:45:49.514Z,35.78
2023-04-25T08:46:50.206Z,37.15
2023-04-25T08:47:49.611Z,36.83
2023-04-25T08:48:49.722Z,37.12
2023-04-25T08:49:49.508Z,37.52
2023-04-25T08:50:49.482Z,37.32
2023-04-25T08:51:49.487Z,37.39
2023-04-25T08:52:49.535Z,37.68
2023-04-25T08:53:53.700Z,37.64
2023-04-25T08:54:50.575Z,38.14
2023-04-25T08:55:49.531Z,39.01
2023-04-25T08:56:49.562Z,39.05
2023-04-25T08:57:49.550Z,38.27
2023-04-25T08:58:49.526Z,34.89
2023-04-25T08:59:49.608Z,32.30
2023-04-25T09:00:49.611Z,31.53
2023-04-25T09:01:49.644Z,31.39
2023-04-25T09:02:49.836Z,31.73
2023-04-25T09:03:49.875Z,32.43
2023-04-25T09:04:49.751Z,33.05
2023-04-25T09:05:49.806Z,33.52
2023-04-25T09:06:49.824Z,33.76
2023-04-25T09:07:50.703Z,34.15
2023-04-25T09:08:49.955Z,34.61
2023-04-25T09:09:49.943Z,34.98
2023-04-25T09:10:49.931Z,35.49
2023-04-25T09:11:49.957Z,35.65
2023-04-25T09:12:49.972Z,35.94
2023-04-25T09:13:50.667Z,36.05
2023-04-25T09:14:50.080Z,36.13
2023-04-25T09:15:50.131Z,36.24
2023-04-25T09:16:50.230Z,36.49
2023-04-25T09:17:50.305Z,36.51
2023-04-25T09:18:50.210Z,36.67
2023-04-25T09:19:50.207Z,36.72
2023-04-25T09:21:00.173Z,36.90
2023-04-25T09:21:51.231Z,36.96
2023-04-25T09:22:50.230Z,37.16
2023-04-25T09:23:50.698Z,37.20
2023-04-25T09:24:50.215Z,37.31
2023-04-25T09:25:50.210Z,37.64
2023-04-25T09:26:50.289Z,37.65
2023-04-25T09:27:50.215Z,37.74
2023-04-25T09:28:50.462Z,37.87
2023-04-25T09:29:50.165Z,38.06
2023-04-25T09:30:50.182Z,37.93
2023-04-25T09:31:50.212Z,38.06
2023-04-25T09:32:50.218Z,37.99
2023-04-25T09:33:50.718Z,38.20
2023-04-25T09:34:50.120Z,38.21
2023-04-25T09:35:50.135Z,38.41
2023-04-25T09:36:50.172Z,38.54
2023-04-25T09:37:50.124Z,38.68
2023-04-25T09:38:50.502Z,38.67
2023-04-25T09:39:50.140Z,38.72
2023-04-25T09:40:50.072Z,38.85
2023-04-25T09:41:50.123Z,39.15
2023-04-25T09:42:50.153Z,38.98
2023-04-25T09:43:50.490Z,39.21
2023-04-25T09:44:50.196Z,39.31
2023-04-25T09:45:50.287Z,39.33
2023-04-25T09:46:50.317Z,39.37
2023-04-25T09:47:50.380Z,39.27
2023-04-25T09:48:50.394Z,38.80
2023-04-25T09:49:50.460Z,37.83
2023-04-25T09:50:50.406Z,37.38
2023-04-25T09:51:50.415Z,37.37
2023-04-25T09:52:50.456Z,37.86
2023-04-25T09:53:50.876Z,38.22
2023-04-25T09:54:50.481Z,38.18
2023-04-25T09:55:50.490Z,37.54
2023-04-25T09:56:50.496Z,37.88
2023-04-25T09:57:50.530Z,38.04
2023-04-25T09:58:50.530Z,38.50
2023-04-25T09:59:50.970Z,38.60
2023-04-25T10:00:50.554Z,38.86
2023-04-25T10:01:50.598Z,38.84
2023-04-25T10:02:50.633Z,39.00
2023-04-25T10:03:50.628Z,39.37
2023-04-25T10:04:51.042Z,39.48
2023-04-25T10:05:50.602Z,39.38
2023-04-25T10:06:50.625Z,39.57
2023-04-25T10:07:50.603Z,39.76
2023-04-25T10:08:50.611Z,39.81
2023-04-25T10:09:50.973Z,39.96
2023-04-25T10:10:50.619Z,40.13
2023-04-25T10:11:50.734Z,40.20
2023-04-25T10:12:50.649Z,40.24
2023-04-25T10:13:50.831Z,40.41
2023-04-25T10:14:50.672Z,40.53
2023-04-25T10:15:50.731Z,40.56
2023-04-25T10:16:50.765Z,40.66
2023-04-25T10:17:50.743Z,40.70
2023-04-25T10:18:50.781Z,40.84
2023-04-25T10:19:50.845Z,40.90
2023-04-25T10:20:52.243Z,41.03
2023-04-25T10:21:50.879Z,41.09
2023-04-25T10:22:50.866Z,40.46
2023-04-25T10:23:51.171Z,39.06
2023-04-25T10:24:50.872Z,37.60
2023-04-25T10:25:50.830Z,39.11
2023-04-25T10:26:50.847Z,39.33
2023-04-25T10:27:50.848Z,39.30
2023-04-25T10:28:50.832Z,38.79
2023-04-25T10:29:50.839Z,38.85
2023-04-25T10:30:50.899Z,38.91
2023-04-25T10:31:50.859Z,39.00
2023-04-25T10:32:50.821Z,39.08
2023-04-25T10:33:51.051Z,39.20
2023-04-25T10:34:50.961Z,39.26
2023-04-25T10:35:50.775Z,39.28
2023-04-25T10:36:50.756Z,39.45
2023-04-25T10:37:50.821Z,39.59
2023-04-25T10:38:50.754Z,39.86
2023-04-25T10:39:50.762Z,39.73
2023-04-25T10:40:50.778Z,36.80
2023-04-25T10:41:50.756Z,34.74
2023-04-25T10:42:50.760Z,34.47
2023-04-25T10:43:51.092Z,35.05
2023-04-25T10:44:51.007Z,34.91
2023-04-25T10:45:50.735Z,35.42
2023-04-25T10:46:50.762Z,35.83
2023-04-25T10:47:50.736Z,36.38
2023-04-25T10:48:50.721Z,36.56
2023-04-25T10:49:50.991Z,36.99
2023-04-25T10:50:50.655Z,36.93
2023-04-25T10:51:55.642Z,36.73
2023-04-25T10:52:51.654Z,36.78
2023-04-25T10:53:50.823Z,36.74
2023-04-25T10:54:51.013Z,36.75
2023-04-25T10:55:50.638Z,36.75
2023-04-25T10:56:50.649Z,36.82
2023-04-25T10:57:50.680Z,36.76
2023-04-25T10:58:52.105Z,36.74
2023-04-25T10:59:51.011Z,36.78
2023-04-25T11:00:57.452Z,36.70
2023-04-25T11:01:51.728Z,36.69
2023-04-25T11:02:50.817Z,36.59
2023-04-25T11:03:50.827Z,36.55
2023-04-25T11:04:51.084Z,36.60
2023-04-25T11:05:57.901Z,36.62
2023-04-25T11:06:53.866Z,36.48
2023-04-25T11:08:51.858Z,36.41
2023-04-25T11:09:51.064Z,36.52
2023-04-25T11:10:52.131Z,36.51
2023-04-25T11:11:50.613Z,36.55
2023-04-25T11:12:50.629Z,36.45
2023-04-25T11:13:50.600Z,36.34
2023-04-25T11:14:37.962Z,36.54
2023-04-25T11:14:51.009Z,36.36
2023-04-25T11:15:58.674Z,36.24
2023-04-25T11:16:51.618Z,36.39
2023-04-25T11:17:50.697Z,36.22
2023-04-25T11:18:50.823Z,36.21
2023-04-25T11:19:51.012Z,36.18
2023-04-25T11:20:50.566Z,36.18
2023-04-25T11:21:50.558Z,36.14
2023-04-25T11:22:52.314Z,36.28
2023-04-25T11:23:50.904Z,36.37
2023-04-25T11:24:51.026Z,36.29
2023-04-25T11:25:50.530Z,36.52
2023-04-25T11:26:50.529Z,36.28
2023-04-25T11:27:50.556Z,36.35
2023-04-25T11:28:50.586Z,36.33
2023-04-25T11:29:51.005Z,36.21
2023-04-25T11:30:50.650Z,36.21
2023-04-25T11:31:50.727Z,36.19
2023-04-25T11:32:50.772Z,36.26
2023-04-25T11:33:51.056Z,36.12
2023-04-25T11:34:51.015Z,36.16
2023-04-25T11:35:50.826Z,36.27
2023-04-25T11:36:50.858Z,36.20
2023-04-25T11:37:50.908Z,36.19
2023-04-25T11:38:50.962Z,36.14
2023-04-25T11:39:50.995Z,36.05
2023-04-25T11:40:51.052Z,35.96
2023-04-25T11:41:51.067Z,36.04
2023-04-25T11:42:51.486Z,36.07
2023-04-25T11:43:51.288Z,36.31
2023-04-25T11:44:51.525Z,36.24
2023-04-25T11:45:51.115Z,36.24
2023-04-25T11:46:51.102Z,36.29
2023-04-25T11:47:51.129Z,36.31
2023-04-25T11:48:51.298Z,36.34
2023-04-25T11:49:51.523Z,36.34
2023-04-25T11:50:51.051Z,36.34
2023-04-25T11:51:51.092Z,36.30
2023-04-25T11:52:51.039Z,36.33
2023-04-25T11:53:51.006Z,36.32
2023-04-25T11:54:51.665Z,36.36
2023-04-25T11:55:51.377Z,36.32
2023-04-25T11:56:51.023Z,36.30
2023-04-25T11:57:51.021Z,36.31
2023-04-25T11:58:51.051Z,36.23
2023-04-25T11:59:51.017Z,36.31
2023-04-25T12:00:51.113Z,36.32
2023-04-25T12:01:51.024Z,36.28
2023-04-25T12:02:51.092Z,36.16
2023-04-25T12:03:51.152Z,36.23
2023-04-25T12:04:51.267Z,36.21
2023-04-25T12:05:51.144Z,36.19
2023-04-25T12:06:51.064Z,36.08
2023-04-25T12:07:50.944Z,36.15
2023-04-25T12:08:51.228Z,36.22
2023-04-25T12:09:51.020Z,36.23
2023-04-25T12:10:51.023Z,36.19
2023-04-25T12:11:50.878Z,36.11
2023-04-25T12:12:50.870Z,36.13
2023-04-25T12:13:50.894Z,36.15
2023-04-25T12:14:51.012Z,36.10
2023-04-25T12:15:50.960Z,36.09
2023-04-25T12:16:50.911Z,36.02
2023-04-25T12:17:50.854Z,36.09
2023-04-25T12:18:51.028Z,36.06
2023-04-25T12:19:51.015Z,35.95
2023-04-25T12:20:50.955Z,36.03
2023-04-25T12:21:58.053Z,36.04
2023-04-25T12:22:52.074Z,35.95
2023-04-25T12:23:51.004Z,35.94
2023-04-25T12:24:51.082Z,35.97
2023-04-25T12:25:50.973Z,35.90
2023-04-25T12:26:50.974Z,35.89
2023-04-25T12:27:50.994Z,35.92
2023-04-25T12:28:51.101Z,35.90
2023-04-25T12:29:51.127Z,35.84
2023-04-25T12:30:50.969Z,35.69
2023-04-25T12:31:51.026Z,35.58
2023-04-25T12:32:50.956Z,35.56
2023-04-25T12:33:50.998Z,35.49
2023-04-25T12:34:51.554Z,35.42
2023-04-25T12:35:51.047Z,35.46
2023-04-25T12:36:51.147Z,35.48
2023-04-25T12:37:51.273Z,35.34
2023-04-25T12:38:51.340Z,35.34
2023-04-25T12:39:51.583Z,35.32
2023-04-25T12:40:51.272Z,35.35
2023-04-25T12:41:51.327Z,35.28
2023-04-25T12:42:51.571Z,35.36
2023-04-25T12:43:51.432Z,35.38
2023-04-25T12:44:51.483Z,35.40
2023-04-25T12:45:51.518Z,35.41
2023-04-25T12:46:51.593Z,35.46
2023-04-25T12:47:51.699Z,35.24
2023-04-25T12:48:51.786Z,35.17
2023-04-25T12:49:52.040Z,35.00
2023-04-25T12:50:51.698Z,35.02
2023-04-25T12:51:51.684Z,35.22
2023-04-25T12:52:51.710Z,35.14